Skip Navigation LinksHome page > Weather > Current weather Skip Navigation Links

Current Weather

Gatwick Apt, London

For information only: do not use for flight planning or navigation.
Latest weather
Observation time Tuesday, October 19, 2021 9:50 PM BST
Local time Tuesday, October 19, 2021 10:15 PM BST
Flight conditions Marginal Visual Meteorological Conditions
Winds
Wind direction South-Southwest (210°)
Wind speed 16 mph
Visibility 5.6 mi.
Sky condition
Ceiling 1,600 ft. broken clouds
Cloud layer broken clouds 1,600 ft.
Temperature 64°F
Dewpoint 59°F
Altimeter 29.80 in.Hg
Derived measurements
Relative humidity 83%
Density altitude 732 ft.
METAR EGKK 192050Z 21014KT 9000 BKN016 18/15 Q1009

Settings

Location code

InnerDrive.Weather 4.0.6770.0 Release CLR 4.0.30319.42000
Copyright ©2018 Inner Drive Technology. All rights reserved. Portions Copyright ©1986-2018 David Braverman.

Find weather

Site navigation


Skip Navigation Links

Place info

Page info

PayPal - The safer, easier way to pay online!

Return home.

Copyright ©2021 Inner Drive Technology. Purveyors of fine, hand-crafted computer software. Page printed 2021-10-19T21:15:27 UTC.